Time;durP1;ratioP1;P1;durP2;ratioP2;P2;SDS_P1;SDS_P2;PMS_P1;PMS_P2;Temp;Humidity;BMP_temperature;BMP_pressure;BME280_temperature;BME280_humidity;BME280_pressure;Samples;Min_cycle;Max_cycle;Signal;HPM_P1;HPM_P2
2023/11/21 05:30:27;;;;;;;0.10;0.10;;;11.50;87.40;;;;;;5931046;23;20164;-83
2023/11/21 05:32:53;;;;;;;0.10;0.10;;;11.50;87.60;;;;;;4994736;28;20053;-80
2023/11/21 05:35:19;;;;;;;0.10;0.10;;;11.50;87.60;;;;;;5008354;28;20112;-80
2023/11/21 05:37:45;;;;;;;0.10;0.10;;;11.50;87.60;;;;;;5005237;28;20056;-80
2023/11/21 05:40:12;;;;;;;0.10;0.10;;;11.50;87.40;;;;;;5000859;28;20018;-80
2023/11/21 05:42:40;;;;;;;0.10;0.10;;;11.50;87.10;;;;;;5018629;28;20029;-81
2023/11/21 05:45:10;;;;;;;0.10;0.10;;;11.60;87.40;;;;;;5017996;28;20109;-81
2023/11/21 05:47:41;;;;;;;0.10;0.10;;;11.60;87.20;;;;;;5000197;28;20030;-80
2023/11/21 05:50:14;;;;;;;0.10;0.10;;;11.60;87.20;;;;;;5018234;28;20517;-80
2023/11/21 05:52:44;;;;;;;0.10;0.10;;;11.60;87.40;;;;;;5018261;28;20025;-80
2023/11/21 05:55:10;;;;;;;0.10;0.10;;;11.50;87.30;;;;;;5018726;28;20099;-80
2023/11/21 05:57:38;;;;;;;0.10;0.10;;;11.50;87.30;;;;;;5000456;28;20036;-76
2023/11/21 06:00:15;;;;;;;0.10;0.10;;;11.50;87.30;;;;;;5017393;28;20093;-77
2023/11/21 06:02:41;;;;;;;0.10;0.10;;;11.40;87.30;;;;;;5014077;28;20049;-77
2023/11/21 06:05:08;;;;;;;0.03;0.03;;;11.40;87.30;;;;;;4999234;28;20032;-79
2023/11/21 06:07:35;;;;;;;0.10;0.10;;;11.30;87.20;;;;;;5017481;28;20504;-78
2023/11/21 06:10:05;;;;;;;0.10;0.10;;;11.20;87.00;;;;;;5000496;28;20022;-77
2023/11/21 06:12:35;;;;;;;0.10;0.10;;;11.20;87.10;;;;;;4997377;28;20044;-77
2023/11/21 06:15:05;;;;;;;0.10;0.10;;;11.10;86.90;;;;;;5018425;28;20089;-77
2023/11/21 06:17:31;;;;;;;0.10;0.10;;;11.10;87.00;;;;;;5017778;28;20051;-77
2023/11/21 06:19:57;;;;;;;0.10;0.10;;;11.00;87.20;;;;;;5000192;28;20026;-78
2023/11/21 06:22:22;;;;;;;0.10;0.10;;;11.00;86.80;;;;;;5016933;28;20481;-78
2023/11/21 06:24:48;;;;;;;0.10;0.10;;;11.00;87.10;;;;;;5002895;28;20026;-78
2023/11/21 06:27:13;;;;;;;0.10;0.10;;;11.00;87.20;;;;;;5017048;28;20040;-78
2023/11/21 06:29:39;;;;;;;0.10;0.10;;;10.90;87.10;;;;;;5015152;28;20072;-79
2023/11/21 06:32:05;;;;;;;0.10;0.10;;;11.10;87.20;;;;;;4984136;28;20054;-79
2023/11/21 06:34:31;;;;;;;0.10;0.10;;;11.10;87.40;;;;;;5011195;28;20068;-78
2023/11/21 06:36:56;;;;;;;0.10;0.10;;;11.20;87.50;;;;;;5015783;28;20034;-78
2023/11/21 06:39:22;;;;;;;0.10;0.10;;;11.20;87.30;;;;;;5014243;28;20084;-78
2023/11/21 06:41:49;;;;;;;0.10;0.10;;;11.30;87.30;;;;;;4999468;28;20026;-79
2023/11/21 06:44:15;;;;;;;0.13;0.13;;;11.40;87.20;;;;;;5020747;28;20520;-79
2023/11/21 06:46:42;;;;;;;0.13;0.13;;;11.50;87.10;;;;;;5018975;28;20048;-79
2023/11/21 06:49:08;;;;;;;0.00;0.00;;;11.50;87.00;;;;;;5004680;28;20026;-79
2023/11/21 06:51:34;;;;;;;0.10;0.10;;;11.50;87.00;;;;;;5005371;28;20713;-78
2023/11/21 06:53:59;;;;;;;0.10;0.10;;;11.50;87.00;;;;;;4999430;28;20050;-77
2023/11/21 06:56:25;;;;;;;0.10;0.10;;;11.50;87.00;;;;;;4999768;28;20416;-77
2023/11/21 06:58:53;;;;;;;0.10;0.10;;;11.50;87.00;;;;;;5000954;28;20111;-77
2023/11/21 07:01:19;;;;;;;0.10;0.10;;;11.60;87.10;;;;;;5016664;28;20025;-77
2023/11/21 07:03:45;;;;;;;0.10;0.10;;;11.60;87.10;;;;;;5016235;28;20040;-77
2023/11/21 07:06:11;;;;;;;0.10;0.10;;;11.60;87.10;;;;;;4999622;28;20085;-76
2023/11/21 07:08:37;;;;;;;0.10;0.10;;;11.60;87.20;;;;;;5016870;28;20025;-77
2023/11/21 07:11:04;;;;;;;0.10;0.10;;;11.60;87.10;;;;;;5016761;28;20022;-78
2023/11/21 07:13:30;;;;;;;0.10;0.10;;;11.60;87.30;;;;;;5015703;28;20030;-77
2023/11/21 07:15:56;;;;;;;0.10;0.10;;;11.50;87.30;;;;;;5017034;28;20559;-77
2023/11/21 07:18:21;;;;;;;0.10;0.10;;;11.60;87.30;;;;;;5006426;28;20029;-77
2023/11/21 07:20:47;;;;;;;0.10;0.10;;;11.60;87.40;;;;;;5036781;28;20026;-77
2023/11/21 07:23:12;;;;;;;0.10;0.10;;;11.60;87.50;;;;;;5036590;28;20083;-77
2023/11/21 07:25:38;;;;;;;0.10;0.10;;;11.60;87.30;;;;;;5029638;28;20033;-77
2023/11/21 07:28:05;;;;;;;0.10;0.10;;;11.60;87.50;;;;;;5016813;28;20588;-77
2023/11/21 07:30:30;;;;;;;0.10;0.10;;;11.70;87.50;;;;;;5016297;28;20041;-77
2023/11/21 07:32:56;;;;;;;0.10;0.10;;;11.60;87.50;;;;;;5016340;28;20366;-77
2023/11/21 07:35:22;;;;;;;0.10;0.10;;;11.70;87.50;;;;;;5016969;28;20049;-77
2023/11/21 07:37:48;;;;;;;0.10;0.10;;;11.70;87.40;;;;;;4998897;28;20026;-77
2023/11/21 07:40:14;;;;;;;0.05;0.05;;;11.70;87.40;;;;;;5016630;28;20053;-77
2023/11/21 07:42:42;;;;;;;0.10;0.10;;;11.70;87.40;;;;;;5016430;28;20026;-77
2023/11/21 07:45:08;;;;;;;0.10;0.10;;;11.70;87.40;;;;;;5016936;28;20026;-77
2023/11/21 07:47:34;;;;;;;0.10;0.10;;;11.70;87.50;;;;;;5016884;28;20025;-77
2023/11/21 07:50:03;;;;;;;0.10;0.10;;;11.60;87.40;;;;;;5016519;28;20105;-77
2023/11/21 07:52:28;;;;;;;0.10;0.10;;;11.70;87.50;;;;;;5016069;28;20018;-77
2023/11/21 07:54:54;;;;;;;0.10;0.10;;;11.70;87.40;;;;;;5016789;28;20060;-77
2023/11/21 07:57:20;;;;;;;0.10;0.10;;;11.70;87.40;;;;;;5015866;28;20033;-77
2023/11/21 07:59:45;;;;;;;0.10;0.10;;;11.70;87.30;;;;;;5018182;28;20485;-77
2023/11/21 08:02:11;;;;;;;0.10;0.10;;;11.70;87.30;;;;;;5016561;28;20041;-77
2023/11/21 08:04:36;;;;;;;0.10;0.10;;;11.60;87.20;;;;;;4995081;28;20036;-77
2023/11/21 08:07:03;;;;;;;0.10;0.10;;;11.60;87.20;;;;;;4997097;28;20054;-77
2023/11/21 08:09:29;;;;;;;0.10;0.10;;;11.50;87.20;;;;;;4984065;28;20053;-77
2023/11/21 08:11:55;;;;;;;0.10;0.10;;;11.50;87.40;;;;;;5020328;28;20520;-77
2023/11/21 08:14:21;;;;;;;0.10;0.10;;;11.50;87.20;;;;;;5020335;28;20018;-77
2023/11/21 08:16:47;;;;;;;0.10;0.10;;;11.50;87.30;;;;;;5019926;28;20041;-77
2023/11/21 08:19:12;;;;;;;0.10;0.10;;;11.50;87.40;;;;;;5020100;28;20030;-77
2023/11/21 08:21:38;;;;;;;0.10;0.10;;;11.50;87.30;;;;;;5019802;28;20026;-77
2023/11/21 08:24:05;;;;;;;0.10;0.10;;;11.50;87.30;;;;;;5020152;28;20045;-77
2023/11/21 08:26:31;;;;;;;0.10;0.10;;;11.60;87.30;;;;;;5020114;28;20017;-77
2023/11/21 08:28:57;;;;;;;0.10;0.10;;;11.80;87.30;;;;;;5001702;28;20034;-77
2023/11/21 08:31:26;;;;;;;0.10;0.10;;;11.80;87.20;;;;;;4998577;28;20096;-77
2023/11/21 08:33:55;;;;;;;0.10;0.10;;;11.80;87.20;;;;;;5018968;28;20720;-77
2023/11/21 08:36:22;;;;;;;0.10;0.10;;;11.90;87.20;;;;;;5002367;28;20026;-77
2023/11/21 08:38:48;;;;;;;0.10;0.10;;;11.90;87.10;;;;;;5019199;28;20037;-77
2023/11/21 08:41:15;;;;;;;0.10;0.10;;;11.90;87.40;;;;;;4999324;28;20496;-77
2023/11/21 08:43:42;;;;;;;0.10;0.10;;;11.90;87.20;;;;;;5000238;28;20045;-77
2023/11/21 08:46:08;;;;;;;0.10;0.10;;;12.00;87.30;;;;;;4993149;28;20042;-77
2023/11/21 08:48:35;;;;;;;0.10;0.10;;;12.10;87.20;;;;;;5000113;28;20389;-77
2023/11/21 08:51:01;;;;;;;0.10;0.10;;;12.10;87.20;;;;;;4999972;28;20053;-77
2023/11/21 08:53:27;;;;;;;0.10;0.10;;;12.20;87.10;;;;;;5019225;28;20034;-77
2023/11/21 08:55:53;;;;;;;0.10;0.10;;;12.30;87.10;;;;;;5019420;28;20101;-77
2023/11/21 08:58:19;;;;;;;0.10;0.10;;;12.20;87.00;;;;;;5020364;28;20511;-77
2023/11/21 09:00:46;;;;;;;0.10;0.10;;;12.20;86.90;;;;;;5019600;28;20021;-77
2023/11/21 09:03:12;;;;;;;0.10;0.10;;;12.20;86.90;;;;;;5019327;28;20022;-77
2023/11/21 09:05:39;;;;;;;0.10;0.10;;;12.20;86.90;;;;;;5018508;28;20034;-77
2023/11/21 09:08:05;;;;;;;0.20;0.20;;;12.10;86.90;;;;;;5019596;28;20018;-77
2023/11/21 09:10:31;;;;;;;0.80;0.80;;;12.20;86.90;;;;;;5019822;28;20101;-77
2023/11/21 09:12:56;;;;;;;0.50;0.50;;;12.20;87.00;;;;;;5039066;28;20022;-77
2023/11/21 09:15:22;;;;;;;0.10;0.10;;;12.30;86.70;;;;;;5038815;28;20017;-76
2023/11/21 09:17:48;;;;;;;0.10;0.10;;;12.30;86.90;;;;;;5019464;28;20057;-77
2023/11/21 09:20:14;;;;;;;0.10;0.10;;;12.20;86.80;;;;;;5038894;28;20026;-77
2023/11/21 09:22:40;;;;;;;0.10;0.10;;;12.20;86.80;;;;;;5033120;28;20022;-78
2023/11/21 09:25:08;;;;;;;0.52;0.52;;;12.30;86.80;;;;;;5018277;28;20015;-77
2023/11/21 09:27:35;;;;;;;0.30;0.30;;;12.20;86.70;;;;;;5019144;28;20045;-77
2023/11/21 09:30:01;;;;;;;0.10;0.10;;;12.40;86.80;;;;;;5018382;28;20018;-78
2023/11/21 09:32:27;;;;;;;0.10;0.10;;;12.70;86.60;;;;;;5018659;28;20459;-77
2023/11/21 09:34:55;;;;;;;0.10;0.10;;;12.80;86.60;;;;;;5001023;28;20049;-77
2023/11/21 09:37:20;;;;;;;0.10;0.10;;;12.70;86.40;;;;;;5018423;28;20026;-77
2023/11/21 09:39:47;;;;;;;0.10;0.10;;;12.60;86.30;;;;;;5018597;28;20041;-77
2023/11/21 09:42:23;;;;;;;0.10;0.10;;;12.50;86.20;;;;;;5001339;28;20111;-78
2023/11/21 09:45:03;;;;;;;0.10;0.10;;;12.50;86.50;;;;;;5018391;28;20026;-77
2023/11/21 09:47:29;;;;;;;0.10;0.10;;;12.60;86.80;;;;;;5018187;28;20036;-77
2023/11/21 09:49:56;;;;;;;0.10;0.10;;;12.70;86.90;;;;;;5000839;28;20420;-77
2023/11/21 09:52:29;;;;;;;0.10;0.10;;;12.90;86.70;;;;;;5018492;28;20026;-77
2023/11/21 09:54:58;;;;;;;0.10;0.10;;;12.90;86.30;;;;;;5018345;28;20033;-77
2023/11/21 09:57:25;;;;;;;0.10;0.10;;;13.00;86.30;;;;;;5018067;28;20041;-77
2023/11/21 09:59:55;;;;;;;0.10;0.10;;;13.20;86.10;;;;;;5018290;28;20021;-77
2023/11/21 10:02:25;;;;;;;0.10;0.10;;;13.20;86.00;;;;;;5018084;28;20033;-77
2023/11/21 10:04:52;;;;;;;0.10;0.10;;;13.20;85.80;;;;;;5017707;28;20026;-77
2023/11/21 10:07:19;;;;;;;0.10;0.10;;;13.30;85.80;;;;;;5000807;28;20030;-77
2023/11/21 10:09:45;;;;;;;0.10;0.10;;;13.20;85.80;;;;;;5018155;28;20014;-77
2023/11/21 10:12:14;;;;;;;0.10;0.10;;;13.20;85.90;;;;;;5000704;28;20026;-77
2023/11/21 10:14:42;;;;;;;0.10;0.10;;;13.30;85.80;;;;;;5030717;28;20026;-77
2023/11/21 10:17:11;;;;;;;0.10;0.10;;;13.40;85.90;;;;;;5020386;28;20116;-77
2023/11/21 10:19:39;;;;;;;0.10;0.10;;;13.50;85.80;;;;;;5004043;28;20477;-77
2023/11/21 10:22:06;;;;;;;0.00;0.00;;;13.50;85.60;;;;;;5017417;28;20026;-77
2023/11/21 10:24:33;;;;;;;0.10;0.10;;;13.40;85.60;;;;;;5017997;28;20048;-77
2023/11/21 10:27:02;;;;;;;0.10;0.10;;;13.30;85.50;;;;;;5017814;28;20512;-77
2023/11/21 10:29:29;;;;;;;0.10;0.10;;;13.20;85.90;;;;;;5014776;28;20192;-77
2023/11/21 10:31:58;;;;;;;0.10;0.10;;;13.30;86.00;;;;;;5015963;28;20050;-77
2023/11/21 10:34:24;;;;;;;0.10;0.10;;;13.20;86.00;;;;;;5017874;28;20026;-77
2023/11/21 10:36:50;;;;;;;0.10;0.10;;;13.30;86.10;;;;;;5017156;28;20400;-78
2023/11/21 10:39:22;;;;;;;0.10;0.10;;;13.20;86.00;;;;;;5000046;28;20025;-77
2023/11/21 10:41:49;;;;;;;0.00;0.00;;;13.20;86.10;;;;;;5017048;28;20026;-77
2023/11/21 10:44:23;;;;;;;0.10;0.10;;;13.20;86.00;;;;;;5037520;28;20108;-77
2023/11/21 10:46:57;;;;;;;0.10;0.10;;;13.20;86.10;;;;;;5037070;28;20027;-77
2023/11/21 10:49:27;;;;;;;0.10;0.10;;;13.30;86.00;;;;;;5018799;28;20037;-77
2023/11/21 10:51:54;;;;;;;0.10;0.10;;;13.30;85.70;;;;;;4996035;28;20084;-77
2023/11/21 10:54:20;;;;;;;0.10;0.10;;;13.30;85.50;;;;;;4996764;28;20149;-77
2023/11/21 10:56:51;;;;;;;0.10;0.10;;;13.40;85.40;;;;;;4998494;28;20584;-77
2023/11/21 10:59:17;;;;;;;0.10;0.10;;;13.30;85.50;;;;;;5017441;28;20040;-77
2023/11/21 11:01:45;;;;;;;0.10;0.10;;;13.30;85.30;;;;;;5016972;28;20030;-78
2023/11/21 11:04:16;;;;;;;0.10;0.10;;;13.30;85.40;;;;;;5017347;28;20053;-77
2023/11/21 11:06:51;;;;;;;0.10;0.10;;;13.30;85.30;;;;;;4999056;28;20026;-77
2023/11/21 11:09:18;;;;;;;0.10;0.10;;;13.30;85.30;;;;;;5017167;28;20528;-77
2023/11/21 11:11:44;;;;;;;0.10;0.10;;;13.40;85.30;;;;;;4999844;28;20018;-77
2023/11/21 11:14:14;;;;;;;0.10;0.10;;;13.40;85.20;;;;;;4999279;28;20044;-77
2023/11/21 11:16:41;;;;;;;0.10;0.10;;;13.60;85.10;;;;;;5016355;28;20456;-77
2023/11/21 11:19:07;;;;;;;0.10;0.10;;;13.70;84.90;;;;;;4999334;28;20156;-77
2023/11/21 11:21:58;;;;;;;0.10;0.10;;;13.80;84.90;;;;;;5016560;28;20065;-78
2023/11/21 11:24:50;;;;;;;0.10;0.10;;;13.80;84.00;;;;;;4999778;28;20037;-77
2023/11/21 11:27:29;;;;;;;0.10;0.10;;;13.80;84.10;;;;;;5016329;28;20493;-77
2023/11/21 11:30:15;;;;;;;0.10;0.10;;;13.80;84.20;;;;;;5016945;28;20030;-77
2023/11/21 11:33:04;;;;;;;0.10;0.10;;;13.80;84.20;;;;;;5021987;28;20048;-77
2023/11/21 11:35:42;;;;;;;0.10;0.10;;;13.80;83.50;;;;;;5036561;28;20381;-78
2023/11/21 11:38:07;;;;;;;0.10;0.10;;;13.80;83.70;;;;;;5036715;28;20064;-77
2023/11/21 11:40:52;;;;;;;0.10;0.10;;;13.90;83.10;;;;;;5027936;28;20022;-77
2023/11/21 11:43:25;;;;;;;0.10;0.10;;;13.90;83.50;;;;;;5029060;28;20037;-77
2023/11/21 11:45:52;;;;;;;0.10;0.10;;;13.90;83.50;;;;;;5038043;28;20022;-77
2023/11/21 11:48:18;;;;;;;0.10;0.10;;;13.90;83.00;;;;;;5040567;28;20057;-77
2023/11/21 11:51:22;;;;;;;0.10;0.10;;;13.80;83.20;;;;;;5040583;28;20029;-77
2023/11/21 11:53:48;;;;;;;0.10;0.10;;;13.80;83.20;;;;;;4927986;29;20040;-77
2023/11/21 11:56:31;;;;;;;0.10;0.10;;;13.80;83.10;;;;;;4922021;29;20062;-78
2023/11/21 11:58:59;;;;;;;0.10;0.10;;;13.90;82.90;;;;;;4979502;28;20041;-77
2023/11/21 12:01:26;;;;;;;0.10;0.10;;;14.10;82.90;;;;;;5003050;28;20038;-78
2023/11/21 12:04:10;;;;;;;0.10;0.10;;;14.30;82.70;;;;;;4999319;28;20034;-78
2023/11/21 12:06:36;;;;;;;0.10;0.10;;;14.50;82.00;;;;;;5018801;28;20037;-77
2023/11/21 12:09:05;;;;;;;0.10;0.10;;;14.60;81.50;;;;;;5040410;28;20021;-77
2023/11/21 12:11:32;;;;;;;0.10;0.10;;;14.60;81.00;;;;;;5040304;28;20029;-78
2023/11/21 12:13:59;;;;;;;0.10;0.10;;;14.40;80.90;;;;;;5022528;28;20034;-77
2023/11/21 12:16:29;;;;;;;0.10;0.10;;;14.40;81.00;;;;;;5020513;28;20059;-77
2023/11/21 12:18:55;;;;;;;0.10;0.10;;;14.40;81.20;;;;;;5040059;28;20033;-78
2023/11/21 12:21:22;;;;;;;0.10;0.10;;;14.40;81.10;;;;;;5040043;28;20029;-77
2023/11/21 12:23:47;;;;;;;0.10;0.10;;;14.40;81.40;;;;;;5023052;28;20030;-78
2023/11/21 12:26:13;;;;;;;0.10;0.10;;;14.40;81.10;;;;;;5019486;28;20084;-77
2023/11/21 12:28:39;;;;;;;0.10;0.10;;;14.30;80.40;;;;;;5020068;28;20023;-78
2023/11/21 12:31:06;;;;;;;0.10;0.10;;;14.30;80.50;;;;;;5019060;28;20192;-78
2023/11/21 12:33:33;;;;;;;0.10;0.10;;;14.20;80.40;;;;;;5019365;28;20057;-78
2023/11/21 12:35:59;;;;;;;0.10;0.10;;;14.20;81.10;;;;;;5017838;28;20019;-77
2023/11/21 12:38:24;;;;;;;0.10;0.10;;;14.10;80.60;;;;;;5006521;28;20041;-78
2023/11/21 12:40:51;;;;;;;0.10;0.10;;;14.20;81.20;;;;;;5019805;28;20022;-77
2023/11/21 12:43:18;;;;;;;0.10;0.10;;;14.20;81.20;;;;;;5001880;28;20046;-78
2023/11/21 12:45:44;;;;;;;0.10;0.10;;;14.20;81.00;;;;;;5020013;28;20045;-77
2023/11/21 12:48:10;;;;;;;0.10;0.10;;;14.20;81.00;;;;;;5017425;28;20398;-78
2023/11/21 12:50:37;;;;;;;0.10;0.10;;;14.10;81.10;;;;;;5039407;28;20435;-78
2023/11/21 12:53:08;;;;;;;0.10;0.10;;;13.90;80.90;;;;;;5004921;28;20050;-78
2023/11/21 12:55:37;;;;;;;0.10;0.10;;;13.90;80.50;;;;;;5004498;28;20021;-78
2023/11/21 12:58:12;;;;;;;0.10;0.10;;;13.80;80.40;;;;;;5035240;28;20519;-75
2023/11/21 13:00:42;;;;;;;0.10;0.10;;;13.80;80.60;;;;;;5002194;28;20067;-78
2023/11/21 13:03:10;;;;;;;0.10;0.10;;;13.80;79.80;;;;;;4998201;28;20058;-78
2023/11/21 13:05:44;;;;;;;0.10;0.10;;;13.80;80.90;;;;;;4999769;28;20021;-78
2023/11/21 13:08:12;;;;;;;0.10;0.10;;;13.90;80.70;;;;;;5001641;28;20397;-78
2023/11/21 13:10:44;;;;;;;0.10;0.10;;;14.00;80.70;;;;;;5019542;28;20018;-78
2023/11/21 13:13:18;;;;;;;0.10;0.10;;;14.00;79.80;;;;;;5018852;28;20046;-78
2023/11/21 13:15:56;;;;;;;0.10;0.10;;;14.10;80.10;;;;;;5019457;28;20032;-78
2023/11/21 13:18:22;;;;;;;0.10;0.10;;;14.00;79.60;;;;;;5019475;28;20381;-78
2023/11/21 13:20:49;;;;;;;0.10;0.10;;;13.90;78.70;;;;;;5018425;28;20021;-78
2023/11/21 13:23:18;;;;;;;0.10;0.10;;;13.90;79.50;;;;;;5038921;28;20488;-77
2023/11/21 13:25:45;;;;;;;0.10;0.10;;;13.90;79.20;;;;;;5028590;28;20049;-78
2023/11/21 13:28:12;;;;;;;0.10;0.10;;;14.00;79.30;;;;;;5001646;28;20048;-77
2023/11/21 13:30:39;;;;;;;0.10;0.10;;;14.00;79.00;;;;;;5018136;28;20038;-78
2023/11/21 13:33:07;;;;;;;0.10;0.10;;;14.00;79.30;;;;;;5019043;28;20080;-78
2023/11/21 13:35:41;;;;;;;0.10;0.10;;;14.00;79.50;;;;;;5018799;28;20033;-78
2023/11/21 13:38:09;;;;;;;0.10;0.10;;;14.00;79.70;;;;;;5018834;28;20432;-78
2023/11/21 13:40:42;;;;;;;0.10;0.10;;;14.00;78.90;;;;;;5000773;28;20026;-77
2023/11/21 13:43:09;;;;;;;0.10;0.10;;;14.00;79.20;;;;;;5018614;28;20029;-78
2023/11/21 13:45:41;;;;;;;0.10;0.10;;;13.80;79.10;;;;;;5018164;28;20157;-75
2023/11/21 13:48:10;;;;;;;0.10;0.10;;;13.90;79.40;;;;;;5018583;28;20104;-78
2023/11/21 13:50:36;;;;;;;0.10;0.10;;;13.90;79.50;;;;;;5017906;28;20026;-77
2023/11/21 13:53:10;;;;;;;0.10;0.10;;;13.80;79.00;;;;;;5018467;28;20022;-75
2023/11/21 13:55:36;;;;;;;0.10;0.10;;;13.90;79.40;;;;;;5018261;28;20018;-78
2023/11/21 13:58:03;;;;;;;0.10;0.10;;;13.90;78.80;;;;;;5018232;28;20018;-77
2023/11/21 14:00:45;;;;;;;0.10;0.10;;;13.90;78.70;;;;;;5000740;28;20026;-77
2023/11/21 14:03:21;;;;;;;0.10;0.10;;;13.90;78.80;;;;;;5017681;28;20026;-78
2023/11/21 14:05:50;;;;;;;0.10;0.10;;;13.90;78.80;;;;;;5018269;28;20022;-77
2023/11/21 14:08:20;;;;;;;0.10;0.10;;;13.90;78.50;;;;;;4999121;28;20504;-78
2023/11/21 14:10:50;;;;;;;0.10;0.10;;;13.80;78.90;;;;;;5000592;28;20014;-78
2023/11/21 14:13:17;;;;;;;0.10;0.10;;;13.70;79.20;;;;;;5037926;28;20116;-78
2023/11/21 14:15:45;;;;;;;0.10;0.10;;;13.70;79.10;;;;;;5037892;28;20018;-78
2023/11/21 14:18:14;;;;;;;0.10;0.10;;;13.70;78.90;;;;;;5018001;28;20029;-78
2023/11/21 14:20:40;;;;;;;0.10;0.10;;;13.70;79.10;;;;;;5020327;28;20021;-77
2023/11/21 14:23:07;;;;;;;0.10;0.10;;;13.60;79.00;;;;;;5019932;28;20496;-75
2023/11/21 14:25:36;;;;;;;0.10;0.10;;;13.70;79.20;;;;;;5036178;28;20496;-78
2023/11/21 14:28:03;;;;;;;0.10;0.10;;;13.70;79.20;;;;;;5021110;28;20033;-77
2023/11/21 14:30:31;;;;;;;0.10;0.10;;;13.60;78.80;;;;;;5014848;28;20050;-77
2023/11/21 14:33:00;;;;;;;0.10;0.10;;;13.60;79.00;;;;;;5017846;28;20026;-77
2023/11/21 14:35:26;;;;;;;0.10;0.10;;;13.60;79.30;;;;;;5000262;28;20024;-77
2023/11/21 14:37:52;;;;;;;0.10;0.10;;;13.70;79.40;;;;;;5017117;28;20037;-77
2023/11/21 14:40:24;;;;;;;0.10;0.10;;;13.60;79.20;;;;;;5017640;28;20026;-76
2023/11/21 14:42:52;;;;;;;0.10;0.10;;;13.70;79.40;;;;;;5017169;28;20032;-78
2023/11/21 14:45:20;;;;;;;0.10;0.10;;;13.70;79.10;;;;;;5017801;28;20022;-78
2023/11/21 14:47:54;;;;;;;0.10;0.10;;;13.60;79.10;;;;;;5017332;28;20030;-77
2023/11/21 14:50:48;;;;;;;0.10;0.10;;;13.60;78.90;;;;;;5007695;28;20029;-77
2023/11/21 14:53:14;;;;;;;0.10;0.10;;;13.60;79.00;;;;;;5011954;28;20068;-77
2023/11/21 14:58:19;;;;;;;0.10;0.10;;;13.50;79.30;;;;;;5009231;28;20026;-78
2023/11/21 15:00:45;;;;;;;0.10;0.10;;;13.40;79.30;;;;;;5017555;28;20024;-77
2023/11/21 15:03:30;;;;;;;0.10;0.10;;;13.40;79.40;;;;;;5017234;28;20026;-77
2023/11/21 15:06:12;;;;;;;0.10;0.10;;;13.30;79.40;;;;;;5016658;28;20032;-78
2023/11/21 15:08:37;;;;;;;0.10;0.10;;;13.30;78.60;;;;;;5017379;28;20033;-77
2023/11/21 15:11:07;;;;;;;0.10;0.10;;;13.20;78.50;;;;;;5017371;28;20018;-78
2023/11/21 15:13:32;;;;;;;0.10;0.10;;;13.20;79.20;;;;;;4999549;28;20076;-78
2023/11/21 15:16:07;;;;;;;0.10;0.10;;;13.20;79.20;;;;;;5016563;28;20033;-77
2023/11/21 15:18:34;;;;;;;0.10;0.10;;;13.20;79.30;;;;;;5017239;28;20366;-77
2023/11/21 15:20:59;;;;;;;0.10;0.10;;;13.20;79.30;;;;;;4999574;28;20117;-77
2023/11/21 15:23:28;;;;;;;0.10;0.10;;;13.10;78.80;;;;;;4999170;28;20062;-78
2023/11/21 15:25:53;;;;;;;0.10;0.10;;;13.20;79.50;;;;;;5036065;28;20053;-77
2023/11/21 15:28:19;;;;;;;0.05;0.05;;;13.10;78.90;;;;;;5036793;28;21149;-77
2023/11/21 15:30:48;;;;;;;0.10;0.10;;;13.10;78.20;;;;;;5002474;28;20441;-78
2023/11/21 15:33:13;;;;;;;0.10;0.10;;;13.00;78.30;;;;;;5016717;28;20026;-78
2023/11/21 15:35:41;;;;;;;0.10;0.10;;;13.00;78.70;;;;;;4999127;28;20033;-78
2023/11/21 15:38:08;;;;;;;0.10;0.10;;;13.00;78.70;;;;;;5016456;28;20014;-77
2023/11/21 15:40:34;;;;;;;0.10;0.10;;;12.90;78.80;;;;;;4999438;28;20045;-78
2023/11/21 15:42:59;;;;;;;0.10;0.10;;;12.90;78.50;;;;;;5015910;28;20018;-78
2023/11/21 15:45:25;;;;;;;0.00;0.00;;;12.90;78.70;;;;;;5016477;28;20034;-77
2023/11/21 15:47:53;;;;;;;0.10;0.10;;;12.90;79.10;;;;;;5016388;28;20029;-77
2023/11/21 15:50:19;;;;;;;0.00;0.00;;;12.90;78.70;;;;;;5016677;28;20103;-77
2023/11/21 15:52:45;;;;;;;0.10;0.10;;;12.80;78.70;;;;;;5016799;28;20034;-77
2023/11/21 15:55:11;;;;;;;0.10;0.10;;;12.80;79.20;;;;;;5016238;28;20022;-78
2023/11/21 15:57:37;;;;;;;0.00;0.00;;;12.80;78.90;;;;;;4999441;28;20117;-77
2023/11/21 16:00:11;;;;;;;0.10;0.10;;;12.80;79.30;;;;;;5016246;28;20057;-77
2023/11/21 16:02:37;;;;;;;0.10;0.10;;;12.80;79.30;;;;;;5016456;28;20029;-77
2023/11/21 16:05:05;;;;;;;0.10;0.10;;;12.80;78.90;;;;;;5016645;28;20017;-78
2023/11/21 16:07:31;;;;;;;0.10;0.10;;;12.70;79.00;;;;;;5020806;28;20093;-77
2023/11/21 16:09:57;;;;;;;0.10;0.10;;;12.70;79.70;;;;;;5036356;28;20115;-77
2023/11/21 16:12:23;;;;;;;0.10;0.10;;;12.70;79.10;;;;;;5016398;28;20018;-77
2023/11/21 16:14:49;;;;;;;0.10;0.10;;;12.70;79.30;;;;;;5018847;28;20037;-77
2023/11/21 16:17:17;;;;;;;0.10;0.10;;;12.50;78.80;;;;;;5036402;28;20101;-77
2023/11/21 16:19:43;;;;;;;0.00;0.00;;;12.50;79.30;;;;;;5005729;28;20026;-78
2023/11/21 16:22:10;;;;;;;0.10;0.10;;;12.50;79.20;;;;;;5016326;28;20105;-77
2023/11/21 16:24:37;;;;;;;0.10;0.10;;;12.50;78.60;;;;;;5016047;28;20030;-78
2023/11/21 16:27:04;;;;;;;0.00;0.00;;;12.50;78.90;;;;;;4998946;28;20030;-78
2023/11/21 16:29:30;;;;;;;0.10;0.10;;;12.50;79.00;;;;;;5016027;28;20086;-77
2023/11/21 16:31:56;;;;;;;0.10;0.10;;;12.50;78.90;;;;;;5010023;28;20042;-77
2023/11/21 16:34:22;;;;;;;0.08;0.08;;;12.50;78.80;;;;;;5019244;28;20030;-77
2023/11/21 16:36:51;;;;;;;0.10;0.10;;;12.50;78.60;;;;;;5020156;28;20040;-78
2023/11/21 16:39:19;;;;;;;0.00;0.00;;;12.50;78.70;;;;;;5019904;28;20034;-78
2023/11/21 16:41:45;;;;;;;0.10;0.10;;;12.40;78.80;;;;;;5002023;28;20523;-77
2023/11/21 16:44:16;;;;;;;0.10;0.10;;;12.50;78.60;;;;;;5019169;28;20053;-77
2023/11/21 16:47:04;;;;;;;0.10;0.10;;;12.50;78.90;;;;;;5023210;28;20076;-77
2023/11/21 16:49:31;;;;;;;0.10;0.10;;;12.50;78.90;;;;;;5021996;28;20492;-77
2023/11/21 16:51:57;;;;;;;0.10;0.10;;;12.40;78.50;;;;;;5037980;28;20097;-77
2023/11/21 16:54:23;;;;;;;0.10;0.10;;;12.40;79.10;;;;;;5039386;28;20053;-77
2023/11/21 16:56:49;;;;;;;0.10;0.10;;;12.30;78.90;;;;;;5031910;28;20057;-77
2023/11/21 16:59:15;;;;;;;0.00;0.00;;;12.30;78.90;;;;;;5013756;28;20037;-77
2023/11/21 17:01:41;;;;;;;0.10;0.10;;;12.30;79.20;;;;;;5018400;28;20131;-77
2023/11/21 17:04:11;;;;;;;0.00;0.00;;;12.30;79.00;;;;;;5001884;28;20026;-77
2023/11/21 17:06:40;;;;;;;0.10;0.10;;;12.40;78.80;;;;;;5001482;28;20076;-77
2023/11/21 17:09:09;;;;;;;0.10;0.10;;;12.30;79.00;;;;;;5019484;28;20025;-77
2023/11/21 17:11:38;;;;;;;0.10;0.10;;;12.30;78.50;;;;;;5019268;28;20022;-77
2023/11/21 17:14:06;;;;;;;0.10;0.10;;;12.30;79.00;;;;;;5019315;28;20018;-77
2023/11/21 17:16:32;;;;;;;0.10;0.10;;;12.30;78.60;;;;;;5018754;28;20033;-77
2023/11/21 17:18:58;;;;;;;0.10;0.10;;;12.20;78.70;;;;;;5001700;28;20473;-77
2023/11/21 17:21:24;;;;;;;0.10;0.10;;;12.20;79.00;;;;;;5019086;28;20030;-77
2023/11/21 17:23:50;;;;;;;0.10;0.10;;;12.20;79.10;;;;;;5019229;28;20405;-77
2023/11/21 17:26:16;;;;;;;0.10;0.10;;;12.20;78.60;;;;;;5027998;28;20033;-77
2023/11/21 17:28:43;;;;;;;0.10;0.10;;;12.30;79.00;;;;;;5038807;28;20022;-77
2023/11/21 17:31:09;;;;;;;0.00;0.00;;;12.20;78.90;;;;;;4995476;28;20105;-77
2023/11/21 17:33:35;;;;;;;0.00;0.00;;;12.30;79.20;;;;;;5005322;28;20702;-77
2023/11/21 17:36:04;;;;;;;0.10;0.10;;;12.30;79.00;;;;;;5024079;28;20473;-80
2023/11/21 17:38:30;;;;;;;0.10;0.10;;;12.20;79.10;;;;;;5000811;28;20106;-83
2023/11/21 17:40:56;;;;;;;0.00;0.00;;;12.20;79.00;;;;;;5017832;28;20029;-87
2023/11/21 17:43:21;;;;;;;0.10;0.10;;;12.20;78.90;;;;;;4999174;28;20054;-85
2023/11/21 17:45:48;;;;;;;0.10;0.10;;;12.20;78.70;;;;;;5018120;28;20018;-86
2023/11/21 17:48:14;;;;;;;0.10;0.10;;;12.20;79.10;;;;;;5000186;28;20085;-86
2023/11/21 17:50:40;;;;;;;0.03;0.03;;;12.20;78.80;;;;;;5000639;28;20049;-87
2023/11/21 17:53:05;;;;;;;0.10;0.10;;;12.10;78.40;;;;;;5018181;28;20025;-81
2023/11/21 17:55:31;;;;;;;0.10;0.10;;;12.10;78.80;;;;;;5000650;28;20061;-82
2023/11/21 17:57:58;;;;;;;0.10;0.10;;;12.10;78.80;;;;;;5000457;28;20022;-82
2023/11/21 18:00:26;;;;;;;0.10;0.10;;;12.20;78.70;;;;;;5017371;28;20026;-78
2023/11/21 18:02:53;;;;;;;0.10;0.10;;;12.20;78.80;;;;;;5005830;28;20409;-78
2023/11/21 18:05:20;;;;;;;0.10;0.10;;;12.20;78.80;;;;;;5037901;28;20060;-78
2023/11/21 18:07:46;;;;;;;0.10;0.10;;;12.20;78.50;;;;;;5038190;28;20038;-78
2023/11/21 18:10:12;;;;;;;0.10;0.10;;;12.10;78.30;;;;;;4987951;28;20033;-79
2023/11/21 18:12:38;;;;;;;0.10;0.10;;;12.10;78.40;;;;;;5000725;28;20385;-78
2023/11/21 18:15:04;;;;;;;0.10;0.10;;;12.10;78.30;;;;;;5017595;28;20066;-80
2023/11/21 18:17:30;;;;;;;0.00;0.00;;;12.10;78.30;;;;;;5000759;28;20022;-82
2023/11/21 18:19:56;;;;;;;0.10;0.10;;;12.00;78.00;;;;;;5018105;28;20029;-82
2023/11/21 18:22:24;;;;;;;0.10;0.10;;;12.10;78.60;;;;;;5017916;28;20049;-79
2023/11/21 18:24:52;;;;;;;0.10;0.10;;;12.00;78.50;;;;;;5037078;28;20033;-78